La Crosse, KS (67548)

10:30 AM CDT on July 23, 2014 (GMT -0500)
Rural Ellis Co. (KKSHAYS15) Elev 2077 ft | 38.81 °N, 99.37 °W | Change Station

Current weather conditions updated 14 minutes ago

Clear
Clear
76.5 °F
Feels Like 78 °F
N
11.9
Wind Variable Wind from ESE

Today is forecast to be Much Cooler than yesterday.

Today
High -- | Low -- °F
--% Chance of Precip.
Yesterday
High -- | Low -- °F
Precip. -- in
6:31 AM 8:55 PM
Waning Crescent, 10% visible
Pressure 30.25 in
Visibility 10.0 miles
Clouds Few 1900 ft
Heat Index 78 °F
Dew Point 70 °F
Humidity 81%
Rainfall 0.00 in
Snow Depth Not available.
UV 5 out of 12
Pollen 5.70 out of 12
Air Quality Not available.
Flu Activity Not available.
METAR KHYS 231515Z AUTO 08011KT 10SM FEW019 25/17 A3025 RMK AO1

More Conditions Fewer Conditions

Pressure 30.25 in
Visibility 10.0 miles
Clouds Few 1900 ft
Heat Index 78 °F
Dew Point 70 °F
Humidity 81%
Rainfall 0.00 in
Snow Depth Not available.
UV 5 out of 12
Pollen 5.70 out of 12
Air Quality Not available.
Flu Activity Not available.
METAR KHYS 231515Z AUTO 08011KT 10SM FEW019 25/17 A3025 RMK AO1

More Conditions Fewer Conditions

10-Day Weather Forecast

Almanac

Astronomy

Jul. 23, 2014 Rise Set
Actual Time 6:31 AM CDT 8:55 PM CDT
Civil Twilight 6:01 AM CDT 9:25 PM CDT
Nautical Twilight 5:23 AM CDT 10:02 PM CDT
Astronomical Twilight 4:42 AM CDT 10:44 PM CDT
Moon 3:51 AM CDT 6:25 PM CDT
Length of Visible Light 15h 24m
Length of Day
14h 24m
Tomorrow will be 1m 36s shorter.
Waning Crescent, 10% of the Moon is Illuminated
Today
Waning Crescent
Jul 26
New
Aug 3
First Quarter
Aug 10
Full
Aug 17
Last Quarter

Today's Extremes

State Highs State Lows

Community

WunderPhotos

Upload Photos

1,736,629 photos uploaded!

Nearby

Snow Depth

Station Depth Elevation
No new snow has been reported.

Earthquake Activity

City Distance Mag. Time & Date
Helena, Oklahoma 144 miles 3.2 8:41 AM CDT
2014-07-18
Cherokee, Oklahoma 141 miles 2.5 10:35 AM CDT
2014-07-17
Caldwell, Kansas 128 miles 3.6 5:40 AM CDT
2014-07-17
Minimum magnitude displayed is 2.5.

Coastal Water Temperatures

Place Temperature
No Stations Reporting

Nearby Weather Stations

Station Location Temp. Heat Index Dew Point Humidity Wind Precip. Elev Updated Type
Rural Ellis Co., Hays, KS 76.5 °F 78 °F 70 °F 81% ESE  at  11.9 mph - / hr 2077 ft 10:16 AM CDT Normal
Sarrada Farms 2.0 N, 2.3 E, Rozel, KS 77.4 °F 79 °F 71 °F 82% ENE  at  13.0 mph 0.00 in / hr 2073 ft 10:30 AM CDT Rapid Fire

Show More Stations Show Fewer Stations